Time;durP1;ratioP1;P1;durP2;ratioP2;P2;SDS_P1;SDS_P2;PMS_P1;PMS_P2;Temp;Humidity;BMP_temperature;BMP_pressure;BME280_temperature;BME280_humidity;BME280_pressure;Samples;Min_cycle;Max_cycle;Signal;HPM_P1;HPM_P2
2023/11/30 00:00:45;;;;;;;17.15;8.00;;;0.50;74.60;;;;;;4851090;29;20068;-93
2023/11/30 00:03:12;;;;;;;16.45;8.05;;;0.50;74.70;;;;;;4851251;29;20420;-93
2023/11/30 00:05:39;;;;;;;16.43;7.67;;;0.60;75.10;;;;;;4851585;29;20048;-96
2023/11/30 00:08:06;;;;;;;16.38;7.60;;;0.60;75.20;;;;;;4851389;29;20071;-96
2023/11/30 00:10:33;;;;;;;16.55;7.07;;;0.50;75.00;;;;;;4850924;29;20053;-96
2023/11/30 00:13:00;;;;;;;17.83;7.65;;;0.50;75.00;;;;;;4851382;29;20508;-96
2023/11/30 00:15:30;;;;;;;16.65;7.25;;;0.40;75.40;;;;;;4851506;29;20504;-96
2023/11/30 00:17:58;;;;;;;16.70;5.83;;;0.40;75.50;;;;;;4851006;29;20132;-96
2023/11/30 00:20:25;;;;;;;17.45;7.22;;;0.50;75.40;;;;;;4851115;29;20109;-96
2023/11/30 00:22:52;;;;;;;19.45;8.00;;;0.50;75.20;;;;;;4851001;29;20088;-96
2023/11/30 00:25:19;;;;;;;18.40;8.18;;;0.40;75.20;;;;;;4851601;29;20118;-96
2023/11/30 00:27:46;;;;;;;17.73;7.32;;;0.40;75.40;;;;;;4851112;29;20149;-96
2023/11/30 00:30:13;;;;;;;16.73;6.73;;;0.40;75.50;;;;;;4851469;29;20049;-96
2023/11/30 00:32:41;;;;;;;20.08;8.45;;;0.40;75.60;;;;;;4851384;29;20060;-96
2023/11/30 00:35:08;;;;;;;19.45;8.48;;;0.40;75.50;;;;;;4851176;29;20076;-96
2023/11/30 00:37:35;;;;;;;20.60;8.27;;;0.40;75.80;;;;;;4851099;29;20057;-95
2023/11/30 00:40:03;;;;;;;21.73;9.48;;;0.40;75.70;;;;;;4851259;29;20234;-96
2023/11/30 00:42:31;;;;;;;22.83;10.53;;;0.40;76.00;;;;;;4851379;29;20059;-96
2023/11/30 00:44:58;;;;;;;17.65;8.45;;;0.40;76.10;;;;;;4851132;29;20057;-95
2023/11/30 00:47:25;;;;;;;23.08;9.13;;;0.40;76.10;;;;;;4850283;29;20057;-94
2023/11/30 00:49:53;;;;;;;16.05;7.32;;;0.30;76.60;;;;;;4850491;29;20056;-95
2023/11/30 00:52:20;;;;;;;19.10;8.73;;;0.30;76.60;;;;;;4850194;29;20049;-95
2023/11/30 00:54:47;;;;;;;18.30;8.77;;;0.40;76.80;;;;;;4850290;29;20463;-95
2023/11/30 00:57:14;;;;;;;20.13;9.23;;;0.40;76.40;;;;;;4850734;29;20049;-95
2023/11/30 00:59:41;;;;;;;19.70;7.55;;;0.40;76.50;;;;;;4850420;29;20445;-95
2023/11/30 01:02:08;;;;;;;25.75;10.43;;;0.40;76.40;;;;;;4850467;29;20049;-95
2023/11/30 01:04:35;;;;;;;21.10;9.38;;;0.40;76.70;;;;;;4865559;29;20053;-95
2023/11/30 01:07:03;;;;;;;20.27;9.13;;;0.40;76.30;;;;;;4850084;29;20057;-95
2023/11/30 01:09:30;;;;;;;21.67;8.65;;;0.50;76.10;;;;;;4850298;29;20068;-96
2023/11/30 01:11:57;;;;;;;32.13;13.07;;;0.60;76.00;;;;;;4850241;29;20060;-95
2023/11/30 01:14:24;;;;;;;22.98;9.95;;;0.60;75.50;;;;;;4865258;29;20049;-96
2023/11/30 01:16:51;;;;;;;21.02;8.10;;;0.80;75.40;;;;;;4850153;29;20045;-96
2023/11/30 01:19:18;;;;;;;17.93;8.33;;;0.70;75.00;;;;;;4850257;29;20116;-96
2023/11/30 01:21:45;;;;;;;16.83;7.22;;;0.70;74.90;;;;;;4850172;29;20057;-96
2023/11/30 01:24:12;;;;;;;15.85;7.05;;;0.60;75.20;;;;;;4851710;29;20049;-96
2023/11/30 01:26:40;;;;;;;19.08;8.45;;;0.50;75.20;;;;;;4853952;29;20497;-96
2023/11/30 01:29:07;;;;;;;16.80;8.35;;;0.50;75.60;;;;;;4856823;29;20057;-96
2023/11/30 01:31:34;;;;;;;14.73;6.57;;;0.40;75.70;;;;;;4857511;29;20049;-96
2023/11/30 01:34:03;;;;;;;16.75;8.82;;;0.40;75.50;;;;;;4855416;29;20049;-96
2023/11/30 01:36:30;;;;;;;17.80;6.78;;;0.50;75.60;;;;;;4857070;29;20100;-96
2023/11/30 01:38:58;;;;;;;17.33;7.45;;;0.50;75.70;;;;;;4859557;29;20072;-96
2023/11/30 01:41:31;;;;;;;16.83;7.03;;;0.50;75.90;;;;;;4869067;29;20063;-96
2023/11/30 01:54:09;;;;;;;16.88;7.65;;;0.50;75.70;;;;;;4825529;29;20109;-96
2023/11/30 02:02:28;;;;;;;15.15;7.18;;;0.60;75.50;;;;;;4806758;29;20046;-95
2023/11/30 02:04:55;;;;;;;18.17;7.97;;;0.60;75.50;;;;;;4776046;29;20558;-95
2023/11/30 02:07:22;;;;;;;15.90;7.05;;;0.50;75.40;;;;;;4776378;29;20058;-95
2023/11/30 02:09:49;;;;;;;15.98;8.13;;;0.60;75.20;;;;;;4775766;29;20108;-96
2023/11/30 02:12:16;;;;;;;17.27;7.75;;;0.60;75.30;;;;;;4790948;29;20042;-94
2023/11/30 02:14:44;;;;;;;16.67;7.93;;;0.70;74.90;;;;;;4775789;29;20091;-95
2023/11/30 02:17:11;;;;;;;17.37;8.30;;;0.80;74.90;;;;;;4775869;29;20058;-95
2023/11/30 02:19:39;;;;;;;20.30;9.25;;;0.90;74.50;;;;;;4790777;29;20502;-95
2023/11/30 02:22:07;;;;;;;20.83;8.90;;;0.90;74.20;;;;;;4790598;29;20067;-96
2023/11/30 02:24:36;;;;;;;24.40;9.55;;;1.10;74.00;;;;;;4790737;29;20074;-96
2023/11/30 02:27:03;;;;;;;19.90;9.80;;;1.20;73.80;;;;;;4790576;29;20043;-95
2023/11/30 02:29:31;;;;;;;22.27;9.80;;;1.30;73.40;;;;;;4790440;29;20051;-95
2023/11/30 02:31:58;;;;;;;19.55;9.00;;;1.30;73.20;;;;;;4775649;29;20164;-95
2023/11/30 02:34:25;;;;;;;21.20;9.10;;;1.40;72.40;;;;;;4775571;29;20059;-95
2023/11/30 02:36:52;;;;;;;18.30;8.98;;;1.30;72.30;;;;;;4775539;29;20062;-96
2023/11/30 02:39:19;;;;;;;23.67;9.30;;;1.40;72.00;;;;;;4775664;29;20077;-96
2023/11/30 02:41:46;;;;;;;19.63;8.27;;;1.40;72.10;;;;;;4780306;29;20055;-96
2023/11/30 02:44:14;;;;;;;18.90;7.50;;;1.40;72.00;;;;;;4843289;29;20120;-96
2023/11/30 02:46:41;;;;;;;21.17;8.73;;;1.40;71.70;;;;;;4850485;29;20057;-95
2023/11/30 02:49:08;;;;;;;17.27;7.80;;;1.40;71.50;;;;;;4848819;29;20448;-96
2023/11/30 02:51:35;;;;;;;16.80;8.05;;;1.40;71.70;;;;;;4848883;29;20131;-94
2023/11/30 02:54:02;;;;;;;19.27;8.70;;;1.50;71.30;;;;;;4849251;29;20056;-94
2023/11/30 02:56:29;;;;;;;15.02;6.53;;;1.50;71.20;;;;;;4849225;29;20064;-95
2023/11/30 02:58:56;;;;;;;14.65;7.47;;;1.50;71.00;;;;;;4848896;29;20053;-95
2023/11/30 03:01:24;;;;;;;14.60;6.72;;;1.50;71.00;;;;;;4849002;29;20048;-95
2023/11/30 03:03:52;;;;;;;17.25;7.85;;;1.40;71.00;;;;;;4849202;29;20055;-95
2023/11/30 03:06:20;;;;;;;17.60;7.53;;;1.50;71.20;;;;;;4849024;29;20053;-95
2023/11/30 03:08:47;;;;;;;14.50;6.57;;;1.50;70.90;;;;;;4848819;29;20049;-96
2023/11/30 03:11:14;;;;;;;17.33;7.50;;;1.50;70.80;;;;;;4851214;29;20049;-95
2023/11/30 03:13:42;;;;;;;15.88;7.93;;;1.60;71.00;;;;;;4852642;29;20051;-95
2023/11/30 03:16:09;;;;;;;15.45;7.93;;;1.50;70.80;;;;;;4852563;29;20045;-95
2023/11/30 03:18:40;;;;;;;17.60;7.93;;;1.50;71.10;;;;;;4852297;29;20052;-95
2023/11/30 03:21:18;;;;;;;20.15;7.93;;;1.60;70.90;;;;;;4867677;29;20060;-95
2023/11/30 03:23:45;;;;;;;18.13;7.93;;;1.50;70.60;;;;;;4852108;29;20079;-95
2023/11/30 03:26:16;;;;;;;20.02;8.10;;;1.50;70.50;;;;;;4852592;29;20522;-95
2023/11/30 03:28:44;;;;;;;15.15;7.25;;;1.50;70.20;;;;;;4852005;29;20503;-94
2023/11/30 03:31:11;;;;;;;18.67;8.37;;;1.50;70.40;;;;;;4851945;29;20504;-95
2023/11/30 03:33:38;;;;;;;18.40;8.07;;;1.50;70.30;;;;;;4852469;29;20088;-96
2023/11/30 03:36:07;;;;;;;18.42;7.85;;;1.60;69.90;;;;;;4852247;29;20044;-96
2023/11/30 03:38:34;;;;;;;17.85;7.53;;;1.60;69.70;;;;;;4852179;29;20057;-95
2023/11/30 03:41:01;;;;;;;18.67;8.32;;;1.70;69.40;;;;;;4857438;29;20435;-95
2023/11/30 03:43:29;;;;;;;20.77;7.97;;;1.70;69.20;;;;;;4871076;29;20045;-95
2023/11/30 03:45:56;;;;;;;17.15;7.97;;;1.70;69.00;;;;;;4867874;29;20060;-96
2023/11/30 03:48:23;;;;;;;16.27;6.70;;;1.70;69.20;;;;;;4882627;29;20065;-95
2023/11/30 03:50:50;;;;;;;19.42;7.43;;;1.70;68.80;;;;;;4867029;29;20041;-96
2023/11/30 03:53:21;;;;;;;17.30;6.85;;;1.70;69.10;;;;;;4882268;29;20409;-95
2023/11/30 03:55:48;;;;;;;16.50;7.40;;;1.70;69.00;;;;;;4882299;29;20435;-96
2023/11/30 03:58:15;;;;;;;17.30;7.22;;;1.70;68.70;;;;;;4882306;29;20053;-95
2023/11/30 04:00:43;;;;;;;17.27;7.50;;;1.70;68.90;;;;;;4866864;29;20084;-95
2023/11/30 04:03:10;;;;;;;19.30;7.18;;;1.70;68.80;;;;;;4882213;29;20053;-95
2023/11/30 04:05:37;;;;;;;14.70;6.18;;;1.70;68.70;;;;;;4881830;29;20049;-95
2023/11/30 04:08:04;;;;;;;14.97;5.87;;;1.60;68.30;;;;;;4881943;29;20572;-95
2023/11/30 04:10:31;;;;;;;16.25;6.55;;;1.60;68.40;;;;;;4866371;29;20045;-95
2023/11/30 04:12:58;;;;;;;14.38;6.28;;;1.40;68.70;;;;;;4882175;29;20151;-94
2023/11/30 04:15:26;;;;;;;14.70;6.25;;;1.30;69.20;;;;;;4867000;29;20049;-94
2023/11/30 04:17:54;;;;;;;14.85;6.25;;;1.30;69.80;;;;;;4864721;29;20420;-96
2023/11/30 04:20:21;;;;;;;11.80;5.63;;;1.30;69.80;;;;;;4852092;29;20073;-94
2023/11/30 04:22:48;;;;;;;12.25;5.68;;;1.30;69.90;;;;;;4867132;29;20083;-94
2023/11/30 04:25:15;;;;;;;15.13;6.55;;;1.30;69.90;;;;;;4866513;29;20136;-93
2023/11/30 04:27:42;;;;;;;17.58;6.53;;;1.30;70.10;;;;;;4881980;29;20045;-94
2023/11/30 04:30:10;;;;;;;13.10;5.88;;;1.30;70.10;;;;;;4881643;29;20048;-93
2023/11/30 04:32:37;;;;;;;14.00;5.93;;;1.30;70.00;;;;;;4881947;29;20041;-93
2023/11/30 04:35:05;;;;;;;14.38;5.10;;;1.30;70.00;;;;;;4866794;29;20045;-93
2023/11/30 04:37:32;;;;;;;14.18;5.40;;;1.20;70.10;;;;;;4881707;29;20068;-93
2023/11/30 04:39:59;;;;;;;12.40;5.43;;;1.20;70.10;;;;;;4866604;29;20151;-93
2023/11/30 04:42:29;;;;;;;12.75;5.57;;;1.20;70.30;;;;;;4881413;29;20120;-93
2023/11/30 04:44:56;;;;;;;10.97;4.73;;;1.20;70.50;;;;;;4866286;29;20053;-92
2023/11/30 04:47:23;;;;;;;10.32;4.72;;;1.10;70.60;;;;;;4866571;29;20057;-93
2023/11/30 04:49:51;;;;;;;25.08;7.03;;;1.00;71.10;;;;;;4881555;29;20105;-91
2023/11/30 04:52:18;;;;;;;18.23;6.60;;;1.00;71.40;;;;;;4869050;29;20049;-93
2023/11/30 04:54:45;;;;;;;14.63;6.80;;;1.10;71.30;;;;;;4856680;29;20071;-94
2023/11/30 04:57:14;;;;;;;16.67;6.07;;;1.20;71.00;;;;;;4856351;29;20140;-91
2023/11/30 04:59:45;;;;;;;17.52;8.30;;;1.30;70.50;;;;;;4868585;29;20119;-93
2023/11/30 05:02:12;;;;;;;18.25;7.38;;;1.30;70.60;;;;;;4852610;29;20051;-95
2023/11/30 05:04:39;;;;;;;13.23;6.00;;;1.40;70.80;;;;;;4850650;29;20049;-94
2023/11/30 05:07:07;;;;;;;12.13;5.25;;;1.40;70.10;;;;;;4850445;29;20504;-94
2023/11/30 05:09:34;;;;;;;10.90;4.77;;;1.40;69.00;;;;;;4851241;29;20385;-94
2023/11/30 05:12:05;;;;;;;12.25;5.00;;;1.40;69.50;;;;;;4853527;29;20471;-94
2023/11/30 05:14:32;;;;;;;12.18;5.47;;;1.40;69.10;;;;;;4877117;29;20051;-94
2023/11/30 05:16:59;;;;;;;12.73;5.70;;;1.50;68.70;;;;;;4850528;29;20045;-94
2023/11/30 05:19:26;;;;;;;12.38;5.30;;;1.60;68.70;;;;;;4855215;29;20044;-95
2023/11/30 05:22:01;;;;;;;11.23;5.43;;;1.70;67.80;;;;;;4866527;29;20140;-96
2023/11/30 05:24:30;;;;;;;13.07;5.93;;;1.70;67.30;;;;;;4868217;29;20460;-92
2023/11/30 05:26:57;;;;;;;12.63;5.22;;;1.70;67.60;;;;;;4851963;29;20492;-94
2023/11/30 05:29:27;;;;;;;10.45;4.93;;;1.60;67.70;;;;;;4850326;29;20436;-94
2023/11/30 05:31:58;;;;;;;12.68;5.47;;;1.50;68.40;;;;;;4849579;29;20580;-96
2023/11/30 05:34:31;;;;;;;10.30;5.03;;;1.50;69.10;;;;;;4873048;29;20045;-96
2023/11/30 05:36:59;;;;;;;11.02;5.20;;;1.50;69.40;;;;;;4856383;29;20096;-96
2023/11/30 05:39:27;;;;;;;14.40;5.80;;;1.40;69.20;;;;;;4855412;29;20050;-96
2023/11/30 05:41:59;;;;;;;11.57;4.93;;;1.40;69.20;;;;;;4841987;29;20500;-96
2023/11/30 05:44:34;;;;;;;13.27;5.38;;;1.40;69.20;;;;;;4841465;29;20057;-96
2023/11/30 05:47:05;;;;;;;10.50;4.47;;;1.50;69.10;;;;;;4853894;29;20049;-96
2023/11/30 05:49:32;;;;;;;9.40;4.22;;;1.40;69.00;;;;;;4851185;29;20064;-96
2023/11/30 05:52:00;;;;;;;9.25;4.40;;;1.30;69.20;;;;;;4839180;29;20046;-96
2023/11/30 05:54:28;;;;;;;10.38;4.70;;;1.20;69.50;;;;;;4873129;29;20050;-96
2023/11/30 05:56:56;;;;;;;10.32;4.50;;;1.30;69.60;;;;;;4854046;29;20079;-96
2023/11/30 05:59:27;;;;;;;11.47;4.90;;;1.30;69.40;;;;;;4838766;29;20052;-96
2023/11/30 06:01:55;;;;;;;11.05;4.78;;;1.30;69.40;;;;;;4859671;29;20053;-96
2023/11/30 06:04:28;;;;;;;13.40;5.50;;;1.30;69.70;;;;;;4874683;29;20057;-96
2023/11/30 06:07:01;;;;;;;11.77;4.88;;;1.30;69.80;;;;;;4839851;29;20054;-96
2023/11/30 06:09:29;;;;;;;11.63;4.78;;;1.40;69.40;;;;;;4856233;29;20052;-94
2023/11/30 06:11:56;;;;;;;12.63;5.40;;;1.40;69.10;;;;;;4881171;29;20076;-96
2023/11/30 06:14:23;;;;;;;13.48;5.20;;;1.40;68.90;;;;;;4880644;29;20484;-96
2023/11/30 06:16:51;;;;;;;11.32;4.80;;;1.40;68.80;;;;;;4866024;29;20052;-96
2023/11/30 06:19:18;;;;;;;11.43;4.90;;;1.40;68.70;;;;;;4881478;29;20049;-96
2023/11/30 06:21:47;;;;;;;10.68;4.85;;;1.50;68.60;;;;;;4881496;29;20052;-96
2023/11/30 06:24:15;;;;;;;10.83;4.67;;;1.50;68.40;;;;;;4881949;29;20055;-96
2023/11/30 06:26:45;;;;;;;11.85;5.28;;;1.50;68.30;;;;;;4866566;29;20476;-96
2023/11/30 06:29:16;;;;;;;14.30;5.43;;;1.50;68.20;;;;;;4866017;29;20060;-96
2023/11/30 06:31:43;;;;;;;12.90;5.00;;;1.40;68.10;;;;;;4880572;29;20053;-96
2023/11/30 06:34:10;;;;;;;12.95;5.80;;;1.40;68.20;;;;;;4865646;29;20053;-96
2023/11/30 06:36:37;;;;;;;12.53;5.37;;;1.40;67.20;;;;;;4880681;29;20051;-96
2023/11/30 06:39:05;;;;;;;11.82;5.05;;;;;;;;;;4883263;29;20053;-96
2023/11/30 06:41:35;;;;;;;11.80;5.32;;;1.20;68.70;;;;;;4871871;29;20049;-96
2023/11/30 06:44:06;;;;;;;11.82;4.60;;;1.20;69.00;;;;;;4881502;29;20045;-96
2023/11/30 06:46:34;;;;;;;11.55;4.35;;;1.20;69.10;;;;;;4885161;29;20045;-96
2023/11/30 06:49:07;;;;;;;12.90;5.67;;;1.20;68.90;;;;;;4870990;29;20045;-96
2023/11/30 06:51:34;;;;;;;12.23;5.60;;;1.20;69.20;;;;;;4888078;29;20087;-96
2023/11/30 06:54:06;;;;;;;15.32;7.22;;;1.30;69.50;;;;;;4874105;29;20052;-96
2023/11/30 06:56:33;;;;;;;14.93;6.85;;;1.40;69.80;;;;;;4883979;29;20044;-96
2023/11/30 06:59:00;;;;;;;14.75;5.53;;;1.40;69.50;;;;;;4868665;29;20046;-96
2023/11/30 07:01:30;;;;;;;12.83;4.57;;;1.50;68.90;;;;;;4883912;29;20060;-96
2023/11/30 07:03:57;;;;;;;11.63;4.88;;;1.40;68.60;;;;;;4869860;29;20045;-96
2023/11/30 07:06:25;;;;;;;12.40;4.60;;;1.40;68.40;;;;;;4870145;29;20080;-96
2023/11/30 07:08:55;;;;;;;10.18;3.63;;;1.40;68.10;;;;;;4868980;29;20053;-96
2023/11/30 07:11:22;;;;;;;10.38;4.10;;;1.40;68.50;;;;;;4869141;29;20053;-96
2023/11/30 07:13:50;;;;;;;11.47;4.30;;;1.50;68.20;;;;;;4868629;29;20416;-96
2023/11/30 07:16:17;;;;;;;9.93;4.15;;;1.50;68.50;;;;;;4869634;29;20091;-96
2023/11/30 07:18:45;;;;;;;13.00;5.28;;;1.60;67.70;;;;;;4884495;29;20143;-96
2023/11/30 07:21:14;;;;;;;12.65;5.03;;;1.70;67.90;;;;;;4868402;29;20053;-96
2023/11/30 07:23:43;;;;;;;11.27;4.30;;;1.80;67.60;;;;;;4883717;29;20053;-96
2023/11/30 07:26:14;;;;;;;21.70;8.50;;;1.80;67.20;;;;;;4883851;29;20144;-95
2023/11/30 07:28:41;;;;;;;16.90;7.03;;;1.90;67.30;;;;;;4869331;29;20498;-96
2023/11/30 07:31:20;;;;;;;12.50;4.80;;;1.90;67.20;;;;;;4883595;29;20088;-95
2023/11/30 07:33:48;;;;;;;11.93;3.75;;;1.90;66.80;;;;;;4883730;29;20053;-96
2023/11/30 07:36:15;;;;;;;9.90;3.85;;;1.90;66.20;;;;;;4883695;29;20059;-96
2023/11/30 07:38:43;;;;;;;10.83;4.13;;;1.90;66.10;;;;;;4868426;29;20060;-96
2023/11/30 07:41:11;;;;;;;8.68;3.78;;;1.90;66.20;;;;;;4868102;29;20081;-96
2023/11/30 07:43:38;;;;;;;9.30;3.65;;;1.90;67.20;;;;;;4883000;29;20053;-96
2023/11/30 07:46:06;;;;;;;11.65;4.13;;;1.90;65.60;;;;;;4883414;29;20144;-96
2023/11/30 07:48:33;;;;;;;17.45;8.10;;;1.90;65.90;;;;;;4868312;29;20053;-96
2023/11/30 07:51:00;;;;;;;19.67;7.57;;;1.90;65.30;;;;;;4868239;29;20117;-96
2023/11/30 07:53:30;;;;;;;15.18;5.32;;;1.90;65.20;;;;;;4883070;29;20048;-96
2023/11/30 07:55:58;;;;;;;14.10;5.25;;;1.90;65.30;;;;;;4883289;29;20177;-96
2023/11/30 07:58:25;;;;;;;11.68;5.30;;;2.00;65.10;;;;;;4868207;29;20056;-96
2023/11/30 08:00:52;;;;;;;13.63;6.28;;;1.90;64.30;;;;;;4883839;29;20113;-96
2023/11/30 08:03:20;;;;;;;9.20;3.77;;;2.00;64.50;;;;;;4867469;29;20053;-96
2023/11/30 08:05:47;;;;;;;7.95;3.22;;;2.00;64.20;;;;;;4883474;29;20088;-96
2023/11/30 08:08:15;;;;;;;9.20;4.03;;;1.90;63.50;;;;;;4883367;29;20061;-96
2023/11/30 08:10:43;;;;;;;7.53;3.20;;;1.90;63.90;;;;;;4882551;29;20076;-95
2023/11/30 08:13:12;;;;;;;9.32;3.30;;;1.90;64.10;;;;;;4866852;29;20131;-96
2023/11/30 08:15:39;;;;;;;9.03;3.70;;;1.90;63.90;;;;;;4867631;29;20049;-96
2023/11/30 08:18:10;;;;;;;9.10;3.30;;;1.90;63.80;;;;;;4882593;29;20053;-96
2023/11/30 08:20:37;;;;;;;8.43;3.78;;;2.00;64.30;;;;;;4867156;29;20579;-96
2023/11/30 08:23:05;;;;;;;9.60;3.40;;;2.00;64.20;;;;;;4882356;29;20048;-96
2023/11/30 08:25:32;;;;;;;8.50;3.05;;;2.00;64.20;;;;;;4866902;29;20048;-96
2023/11/30 08:28:00;;;;;;;8.70;3.13;;;2.00;63.50;;;;;;4882916;29;20045;-96
2023/11/30 08:30:27;;;;;;;10.18;3.40;;;2.10;64.00;;;;;;4882727;29;20131;-96
2023/11/30 08:32:54;;;;;;;8.02;2.95;;;2.20;64.20;;;;;;4882531;29;20412;-96
2023/11/30 08:35:22;;;;;;;10.30;3.55;;;2.20;63.00;;;;;;4882315;29;20045;-96
2023/11/30 08:37:50;;;;;;;8.43;3.15;;;2.10;62.60;;;;;;4882353;29;20057;-96
2023/11/30 08:40:17;;;;;;;7.43;2.70;;;2.00;62.70;;;;;;4866986;29;20045;-96
2023/11/30 08:42:45;;;;;;;7.45;3.05;;;2.00;62.60;;;;;;4882501;29;20053;-96
2023/11/30 08:45:12;;;;;;;8.15;3.22;;;2.00;63.00;;;;;;4867202;29;20116;-96
2023/11/30 08:47:39;;;;;;;9.57;3.65;;;2.00;63.40;;;;;;4882800;29;20052;-95
2023/11/30 08:50:10;;;;;;;7.97;2.90;;;1.90;63.20;;;;;;4882672;29;20053;-96
2023/11/30 08:52:37;;;;;;;8.77;3.47;;;1.90;62.40;;;;;;4866518;29;20416;-96
2023/11/30 08:55:05;;;;;;;8.95;3.67;;;1.80;62.80;;;;;;4866677;29;20056;-96
2023/11/30 08:57:32;;;;;;;10.27;3.95;;;1.90;63.10;;;;;;4882303;29;20044;-96
2023/11/30 09:00:00;;;;;;;9.20;3.47;;;2.00;63.10;;;;;;4866702;29;20083;-96
2023/11/30 09:02:27;;;;;;;10.32;3.25;;;2.00;62.90;;;;;;4882101;29;20088;-96
2023/11/30 09:04:54;;;;;;;9.37;2.53;;;2.10;62.00;;;;;;4866859;29;20045;-96
2023/11/30 09:07:21;;;;;;;8.57;3.00;;;2.10;61.90;;;;;;4882418;29;20057;-96
2023/11/30 09:09:49;;;;;;;9.73;3.78;;;2.00;61.90;;;;;;4865860;29;20052;-96
2023/11/30 09:12:17;;;;;;;8.75;3.25;;;2.00;62.40;;;;;;4881591;29;20049;-96
2023/11/30 09:14:45;;;;;;;9.40;3.22;;;2.00;62.70;;;;;;4866749;29;20139;-96
2023/11/30 09:17:12;;;;;;;8.13;3.40;;;2.00;62.50;;;;;;4866679;29;20510;-96
2023/11/30 09:19:39;;;;;;;8.50;3.60;;;2.00;62.30;;;;;;4881593;29;20053;-96
2023/11/30 09:22:07;;;;;;;9.65;4.05;;;1.90;62.60;;;;;;4881354;29;20053;-96
2023/11/30 09:24:35;;;;;;;8.32;2.90;;;1.90;62.60;;;;;;4881702;29;20045;-96
2023/11/30 09:27:05;;;;;;;8.68;3.28;;;1.80;63.00;;;;;;4866096;29;20423;-96
2023/11/30 09:29:36;;;;;;;9.37;3.40;;;1.70;63.40;;;;;;4866119;29;20106;-96
2023/11/30 09:32:03;;;;;;;8.23;3.53;;;1.70;63.40;;;;;;4883785;29;20051;-96
2023/11/30 09:34:30;;;;;;;8.88;3.25;;;1.70;63.00;;;;;;4867157;29;20064;-96
2023/11/30 09:36:59;;;;;;;8.32;3.47;;;1.70;63.40;;;;;;4867115;29;20096;-96
2023/11/30 09:39:26;;;;;;;7.75;3.00;;;1.70;63.40;;;;;;4866612;29;20144;-96
2023/11/30 09:41:57;;;;;;;8.97;3.70;;;1.60;62.80;;;;;;4866381;29;20503;-96
2023/11/30 09:44:24;;;;;;;8.10;3.30;;;1.70;63.30;;;;;;4881391;29;20049;-96
2023/11/30 09:46:54;;;;;;;10.38;3.75;;;1.80;62.70;;;;;;4865503;29;20093;-96
2023/11/30 09:49:21;;;;;;;8.82;3.13;;;1.90;63.20;;;;;;4866447;29;20144;-96
2023/11/30 09:51:52;;;;;;;6.55;2.70;;;1.90;62.80;;;;;;4881310;29;20052;-96
2023/11/30 09:54:19;;;;;;;9.80;3.97;;;1.90;63.00;;;;;;4881458;29;20045;-96
2023/11/30 09:56:47;;;;;;;9.57;3.33;;;1.90;63.20;;;;;;4882790;29;20084;-96
2023/11/30 09:59:14;;;;;;;8.18;3.10;;;1.90;63.00;;;;;;4882812;29;20393;-96
2023/11/30 10:01:43;;;;;;;8.60;2.75;;;1.90;62.80;;;;;;4881411;29;20053;-96
2023/11/30 10:04:15;;;;;;;8.38;2.92;;;1.90;62.60;;;;;;4865795;29;20060;-96
2023/11/30 10:06:47;;;;;;;9.00;3.20;;;1.90;62.80;;;;;;4882188;29;20495;-96
2023/11/30 10:09:16;;;;;;;9.60;3.97;;;1.90;63.30;;;;;;4867546;29;20461;-96
2023/11/30 10:11:43;;;;;;;8.77;3.70;;;1.90;63.20;;;;;;4866354;29;20045;-96
2023/11/30 10:14:11;;;;;;;11.10;4.28;;;1.90;63.20;;;;;;4882932;29;20108;-96
2023/11/30 10:16:39;;;;;;;13.48;4.82;;;1.80;63.30;;;;;;4867327;29;20492;-96
2023/11/30 10:19:07;;;;;;;18.13;6.33;;;1.90;63.50;;;;;;4881204;29;20053;-96
2023/11/30 10:21:37;;;;;;;13.57;5.72;;;1.90;63.20;;;;;;4866367;29;20052;-96
2023/11/30 10:24:08;;;;;;;11.55;4.45;;;1.90;63.40;;;;;;4881438;29;20146;-96
2023/11/30 10:26:36;;;;;;;9.98;3.90;;;1.90;63.00;;;;;;4867004;29;20053;-96
2023/11/30 10:29:06;;;;;;;25.65;7.88;;;1.90;63.30;;;;;;4867169;29;20121;-96
2023/11/30 10:31:37;;;;;;;21.70;7.60;;;1.90;63.60;;;;;;4883198;29;20144;-96
2023/11/30 10:34:10;;;;;;;13.02;4.38;;;2.00;63.40;;;;;;4883209;29;20050;-96
2023/11/30 10:36:43;;;;;;;9.88;3.35;;;2.00;63.10;;;;;;4881463;29;20045;-96
2023/11/30 10:39:19;;;;;;;8.68;3.40;;;1.90;63.20;;;;;;4865913;29;20049;-96
2023/11/30 10:41:53;;;;;;;8.93;3.50;;;1.90;63.20;;;;;;4881701;29;20060;-96
2023/11/30 10:44:33;;;;;;;12.67;4.40;;;2.00;63.50;;;;;;4881146;29;20140;-96
2023/11/30 10:47:01;;;;;;;11.18;5.03;;;2.00;63.30;;;;;;4881162;29;20152;-96
2023/11/30 10:49:31;;;;;;;13.57;5.38;;;2.00;63.40;;;;;;4881513;29;20053;-96
2023/11/30 10:52:01;;;;;;;9.30;3.67;;;2.20;63.30;;;;;;4867008;29;20045;-96
2023/11/30 10:54:38;;;;;;;9.35;3.80;;;2.20;63.60;;;;;;4881840;29;20084;-96
2023/11/30 10:57:06;;;;;;;10.47;4.20;;;2.20;63.40;;;;;;4867301;29;20045;-96
2023/11/30 10:59:34;;;;;;;11.02;4.43;;;2.30;63.10;;;;;;4883772;29;20064;-96
2023/11/30 11:02:05;;;;;;;11.60;3.88;;;2.30;63.20;;;;;;4868523;29;20049;-96
2023/11/30 11:04:38;;;;;;;11.63;4.60;;;2.30;63.40;;;;;;4884204;29;20112;-96
2023/11/30 11:07:12;;;;;;;12.70;5.18;;;2.40;63.30;;;;;;4867314;29;20049;-96
2023/11/30 11:09:54;;;;;;;11.80;4.53;;;2.40;62.80;;;;;;4869937;29;20049;-96
2023/11/30 11:12:26;;;;;;;11.38;4.57;;;2.40;63.50;;;;;;4884668;29;20048;-96
2023/11/30 11:15:14;;;;;;;10.52;4.20;;;2.40;63.20;;;;;;4866346;29;20064;-96
2023/11/30 11:17:51;;;;;;;10.52;4.78;;;2.30;62.90;;;;;;4866838;29;20053;-96
2023/11/30 11:20:23;;;;;;;10.43;4.47;;;2.20;63.30;;;;;;4864926;29;20049;-96
2023/11/30 11:23:04;;;;;;;9.63;3.43;;;2.30;63.70;;;;;;4880824;29;20049;-96
2023/11/30 11:25:38;;;;;;;9.48;3.83;;;2.30;63.50;;;;;;4865954;29;20053;-96
2023/11/30 11:28:06;;;;;;;9.88;4.38;;;2.40;63.60;;;;;;4883073;29;20081;-96
2023/11/30 11:30:47;;;;;;;12.70;5.35;;;2.40;63.30;;;;;;4866777;29;20044;-96
2023/11/30 11:33:16;;;;;;;10.60;4.40;;;2.30;63.80;;;;;;4868832;29;20041;-96
2023/11/30 11:35:46;;;;;;;10.30;4.63;;;2.40;63.60;;;;;;4883885;29;20041;-96
2023/11/30 11:38:14;;;;;;;12.07;4.75;;;2.40;63.10;;;;;;4884267;29;20415;-96
2023/11/30 11:40:42;;;;;;;11.55;4.60;;;2.40;63.60;;;;;;4884269;29;20080;-96
2023/11/30 11:43:09;;;;;;;9.93;4.70;;;2.30;63.60;;;;;;4870780;29;20056;-96
2023/11/30 11:45:37;;;;;;;12.57;5.05;;;2.30;63.60;;;;;;4886491;29;20056;-96
2023/11/30 11:48:10;;;;;;;11.23;4.70;;;2.30;63.90;;;;;;4869920;29;20052;-96
2023/11/30 11:50:38;;;;;;;12.77;5.25;;;2.40;63.50;;;;;;4871090;29;20053;-96
2023/11/30 11:53:10;;;;;;;12.05;5.00;;;2.40;64.10;;;;;;4870798;29;20053;-96
2023/11/30 11:55:38;;;;;;;11.73;4.70;;;2.40;63.60;;;;;;4869914;29;20139;-96
2023/11/30 11:58:14;;;;;;;12.15;5.30;;;2.40;63.20;;;;;;4870676;29;20072;-96
2023/11/30 12:00:52;;;;;;;10.37;4.67;;;2.50;63.70;;;;;;4873369;29;20486;-96
2023/11/30 12:03:24;;;;;;;11.43;4.43;;;2.60;63.60;;;;;;4875058;29;20052;-96
2023/11/30 12:05:58;;;;;;;9.93;4.40;;;2.50;63.30;;;;;;4876158;29;20064;-96
2023/11/30 12:08:34;;;;;;;12.15;5.05;;;2.60;63.30;;;;;;4874760;29;20049;-96
2023/11/30 12:11:05;;;;;;;13.00;5.38;;;2.70;63.40;;;;;;4874160;29;20148;-96
2023/11/30 12:13:37;;;;;;;12.57;5.30;;;2.80;63.60;;;;;;4873714;29;20052;-96
2023/11/30 12:16:08;;;;;;;12.32;4.72;;;2.90;62.80;;;;;;4887271;29;20078;-96
2023/11/30 12:18:36;;;;;;;12.45;5.40;;;2.80;62.70;;;;;;4872011;29;20052;-96
2023/11/30 12:21:04;;;;;;;11.80;4.97;;;2.80;62.90;;;;;;4870773;29;20083;-96
2023/11/30 12:23:34;;;;;;;14.00;5.72;;;2.80;62.90;;;;;;4886845;29;20056;-96
2023/11/30 12:26:02;;;;;;;16.87;6.47;;;2.90;63.30;;;;;;4870114;29;20097;-95
2023/11/30 12:28:30;;;;;;;13.23;5.30;;;2.90;63.00;;;;;;4887398;29;20061;-96
2023/11/30 12:31:00;;;;;;;15.85;6.35;;;2.90;62.90;;;;;;4872712;29;20084;-96
2023/11/30 12:33:28;;;;;;;13.82;6.30;;;2.90;63.00;;;;;;4871045;29;20053;-96
2023/11/30 12:35:55;;;;;;;18.63;7.82;;;2.90;63.40;;;;;;4869794;29;20500;-96
2023/11/30 12:38:23;;;;;;;13.03;6.00;;;3.00;63.10;;;;;;4886403;29;20048;-96
2023/11/30 12:40:52;;;;;;;13.43;5.35;;;3.00;63.00;;;;;;4889308;29;20049;-96
2023/11/30 12:43:23;;;;;;;16.20;6.57;;;3.20;63.20;;;;;;4891731;29;20053;-96
2023/11/30 12:45:53;;;;;;;19.30;7.43;;;3.30;63.10;;;;;;4879134;29;20523;-96
2023/11/30 12:48:24;;;;;;;11.90;5.18;;;3.30;61.90;;;;;;4877622;29;20053;-96
2023/11/30 12:50:57;;;;;;;14.20;5.70;;;3.20;61.70;;;;;;4876587;29;20053;-96
2023/11/30 12:53:25;;;;;;;12.80;5.75;;;3.10;62.60;;;;;;4890052;29;20507;-96
2023/11/30 12:55:53;;;;;;;14.77;6.47;;;3.20;62.80;;;;;;4873491;29;20077;-96
2023/11/30 12:58:21;;;;;;;14.00;6.53;;;3.20;62.80;;;;;;4873358;29;20053;-96
2023/11/30 13:00:51;;;;;;;11.88;5.30;;;3.20;63.00;;;;;;4875189;29;20052;-96
2023/11/30 13:03:26;;;;;;;12.63;5.90;;;3.20;63.10;;;;;;4891635;29;20053;-96
2023/11/30 13:05:55;;;;;;;12.60;5.70;;;3.20;62.60;;;;;;4876976;29;20056;-96
2023/11/30 13:08:23;;;;;;;14.50;5.43;;;3.10;63.30;;;;;;4877166;29;20100;-96
2023/11/30 13:10:53;;;;;;;11.30;5.18;;;3.10;63.60;;;;;;4877000;29;20143;-96